createdAt,value
2022-07-26T00:01:48.227Z,20.75
2022-07-26T00:04:15.369Z,17.67
2022-07-26T00:06:42.591Z,19.15
2022-07-26T00:09:10.333Z,21.55
2022-07-26T00:11:37.691Z,19.80
2022-07-26T00:14:09.234Z,19.98
2022-07-26T00:16:38.078Z,15.05
2022-07-26T00:19:10.273Z,23.90
2022-07-26T00:21:38.554Z,17.85
2022-07-26T00:24:09.096Z,17.95
2022-07-26T00:26:36.382Z,18.38
2022-07-26T00:29:06.123Z,16.45
2022-07-26T00:31:33.751Z,19.48
2022-07-26T00:34:00.915Z,21.00
2022-07-26T00:36:28.994Z,18.73
2022-07-26T00:38:55.998Z,19.80
2022-07-26T00:41:23.132Z,18.27
2022-07-26T00:44:00.380Z,20.25
2022-07-26T00:46:28.340Z,21.52
2022-07-26T00:48:55.844Z,20.83
2022-07-26T00:51:23.657Z,22.95
2022-07-26T00:53:50.997Z,19.50
2022-07-26T00:56:18.733Z,21.88
2022-07-26T00:58:45.917Z,20.58
2022-07-26T01:01:13.307Z,22.63
2022-07-26T01:03:40.649Z,23.27
2022-07-26T01:06:08.878Z,20.50
2022-07-26T01:08:36.858Z,21.40
2022-07-26T01:18:41.808Z,18.45
2022-07-26T01:21:13.911Z,20.58
2022-07-26T01:23:43.699Z,21.88
2022-07-26T01:26:11.877Z,20.15
2022-07-26T01:28:41.987Z,16.95
2022-07-26T01:31:09.318Z,17.27
2022-07-26T01:33:36.463Z,17.90
2022-07-26T01:36:03.777Z,16.02
2022-07-26T01:38:30.860Z,17.95
2022-07-26T01:40:57.949Z,16.83
2022-07-26T01:43:24.994Z,16.73
2022-07-26T01:45:54.985Z,15.82
2022-07-26T01:48:22.231Z,18.83
2022-07-26T01:50:49.367Z,16.70
2022-07-26T01:53:16.494Z,18.48
2022-07-26T01:55:43.624Z,16.05
2022-07-26T01:58:10.656Z,17.00
2022-07-26T02:00:37.743Z,16.47
2022-07-26T02:03:05.009Z,18.33
2022-07-26T02:05:32.219Z,17.52
2022-07-26T02:07:59.455Z,15.75
2022-07-26T02:10:47.778Z,17.13
2022-07-26T02:13:14.894Z,15.48
2022-07-26T02:15:42.529Z,16.90
2022-07-26T02:18:09.951Z,17.90
2022-07-26T02:20:37.022Z,15.35
2022-07-26T02:23:05.212Z,14.05
2022-07-26T02:25:32.934Z,19.08
2022-07-26T02:28:01.651Z,15.38
2022-07-26T02:30:29.458Z,14.95
2022-07-26T02:32:56.784Z,16.30
2022-07-26T02:35:23.905Z,16.95
2022-07-26T02:37:51.017Z,16.08
2022-07-26T02:40:19.480Z,17.27
2022-07-26T02:42:46.926Z,16.55
2022-07-26T02:45:13.970Z,15.77
2022-07-26T02:47:54.134Z,17.70
2022-07-26T02:50:25.838Z,15.35
2022-07-26T02:52:54.256Z,17.35
2022-07-26T02:55:26.733Z,17.95
2022-07-26T02:57:54.774Z,14.35
2022-07-26T03:00:27.508Z,14.57
2022-07-26T03:02:54.887Z,12.23
2022-07-26T03:05:22.601Z,13.05
2022-07-26T03:07:50.640Z,12.13
2022-07-26T03:10:17.794Z,15.95
2022-07-26T03:12:45.428Z,15.43
2022-07-26T03:15:12.851Z,13.02
2022-07-26T03:17:39.971Z,13.40
2022-07-26T03:20:08.407Z,17.65
2022-07-26T03:22:35.515Z,17.45
2022-07-26T03:25:02.615Z,16.60
2022-07-26T03:27:29.768Z,14.60
2022-07-26T03:29:56.741Z,15.57
2022-07-26T03:32:23.839Z,18.15
2022-07-26T03:34:51.336Z,14.88
2022-07-26T03:37:19.034Z,17.60
2022-07-26T03:39:46.245Z,18.80
2022-07-26T03:42:15.494Z,22.08
2022-07-26T03:44:42.627Z,13.90
2022-07-26T03:47:09.692Z,16.07
2022-07-26T03:49:36.768Z,14.20
2022-07-26T03:52:04.497Z,16.03
2022-07-26T03:54:31.800Z,17.77
2022-07-26T03:56:58.824Z,17.08
2022-07-26T03:59:25.823Z,15.38
2022-07-26T04:01:52.907Z,18.92
2022-07-26T04:04:25.171Z,16.90
2022-07-26T04:06:52.677Z,19.25
2022-07-26T04:09:20.333Z,14.75
2022-07-26T04:11:48.690Z,18.08
2022-07-26T04:14:16.569Z,17.23
2022-07-26T04:16:44.054Z,15.85
2022-07-26T04:19:11.459Z,13.02
2022-07-26T04:21:38.826Z,16.23
2022-07-26T04:24:07.019Z,16.02
2022-07-26T04:26:34.963Z,18.77
2022-07-26T04:29:02.412Z,15.13
2022-07-26T04:31:29.389Z,17.65
2022-07-26T04:34:03.711Z,17.27
2022-07-26T04:36:30.729Z,15.82
2022-07-26T04:38:57.802Z,13.63
2022-07-26T04:41:25.065Z,17.30
2022-07-26T04:43:52.099Z,18.52
2022-07-26T04:46:19.617Z,17.90
2022-07-26T04:48:46.765Z,17.15
2022-07-26T04:51:13.834Z,20.60
2022-07-26T04:53:40.897Z,13.03
2022-07-26T04:56:08.360Z,14.40
2022-07-26T04:58:35.407Z,15.30
2022-07-26T05:01:09.922Z,16.17
2022-07-26T05:03:37.926Z,21.60
2022-07-26T05:06:05.248Z,19.38
2022-07-26T05:08:32.301Z,16.33
2022-07-26T05:10:59.378Z,18.33
2022-07-26T05:13:30.324Z,14.33
2022-07-26T05:16:00.251Z,17.60
2022-07-26T05:18:31.471Z,14.73
2022-07-26T05:20:59.117Z,12.43
2022-07-26T05:23:26.140Z,16.13
2022-07-26T05:25:53.249Z,16.10
2022-07-26T05:28:20.311Z,12.75
2022-07-26T05:30:47.560Z,14.50
2022-07-26T05:33:16.707Z,16.63
2022-07-26T05:35:44.343Z,11.80
2022-07-26T05:38:11.762Z,14.93
2022-07-26T05:40:38.954Z,14.15
2022-07-26T05:43:06.057Z,12.55
2022-07-26T05:45:33.316Z,14.70
2022-07-26T05:48:00.560Z,11.15
2022-07-26T05:50:27.736Z,13.30
2022-07-26T05:52:54.745Z,8.85
2022-07-26T05:55:23.073Z,13.30
2022-07-26T05:57:50.159Z,11.25
2022-07-26T06:00:17.706Z,13.70
2022-07-26T06:02:44.840Z,10.55
2022-07-26T06:05:12.056Z,13.30
2022-07-26T06:07:39.107Z,9.63
2022-07-26T06:10:07.016Z,12.67
2022-07-26T06:15:01.222Z,8.38
2022-07-26T06:17:30.576Z,11.75
2022-07-26T06:19:58.693Z,9.77
2022-07-26T06:22:26.638Z,6.47
2022-07-26T06:27:20.747Z,9.40
2022-07-26T06:29:49.220Z,10.25
2022-07-26T06:32:16.425Z,7.88
2022-07-26T06:34:43.495Z,14.38
2022-07-26T06:37:10.551Z,11.77
2022-07-26T06:39:37.729Z,7.17
2022-07-26T06:42:07.686Z,10.65
2022-07-26T06:44:35.305Z,7.20
2022-07-26T06:47:02.456Z,10.48
2022-07-26T06:49:29.562Z,8.07
2022-07-26T06:51:57.978Z,8.43
2022-07-26T06:54:25.036Z,11.38
2022-07-26T06:56:52.306Z,7.55
2022-07-26T06:59:19.366Z,10.35
2022-07-26T07:01:58.066Z,7.03
2022-07-26T07:04:30.144Z,5.50
2022-07-26T07:07:02.718Z,8.07
2022-07-26T07:09:35.091Z,6.50
2022-07-26T07:12:10.577Z,7.53
2022-07-26T07:14:39.677Z,6.75
2022-07-26T07:17:10.731Z,10.68
2022-07-26T07:19:41.154Z,6.43
2022-07-26T07:22:11.988Z,5.00
2022-07-26T07:24:41.683Z,5.60
2022-07-26T07:27:10.763Z,5.40
2022-07-26T07:29:41.447Z,11.45
2022-07-26T07:32:15.745Z,5.80
2022-07-26T07:34:47.911Z,9.10
2022-07-26T07:37:17.034Z,4.40
2022-07-26T07:39:44.659Z,8.07
2022-07-26T07:42:19.780Z,10.15
2022-07-26T07:44:47.862Z,5.97
2022-07-26T07:47:15.042Z,9.35
2022-07-26T07:49:42.156Z,7.25
2022-07-26T07:52:09.336Z,7.63
2022-07-26T07:54:36.387Z,6.78
2022-07-26T07:57:03.690Z,5.85
2022-07-26T07:59:31.066Z,5.57
2022-07-26T08:01:59.061Z,5.63
2022-07-26T08:04:26.329Z,7.13
2022-07-26T08:06:53.481Z,7.00
2022-07-26T08:09:20.641Z,6.85
2022-07-26T08:14:19.738Z,6.53
2022-07-26T08:16:47.202Z,5.15
2022-07-26T08:19:15.046Z,8.18
2022-07-26T08:21:43.036Z,10.85
2022-07-26T08:24:10.979Z,10.57
2022-07-26T08:26:39.026Z,7.22
2022-07-26T08:29:06.094Z,5.95
2022-07-26T08:31:33.286Z,7.28
2022-07-26T08:34:00.415Z,8.27
2022-07-26T08:36:32.239Z,6.32
2022-07-26T08:39:00.912Z,6.82
2022-07-26T08:41:28.706Z,5.40
2022-07-26T08:46:27.688Z,3.67
2022-07-26T08:48:58.382Z,7.53
2022-07-26T08:51:27.281Z,6.90
2022-07-26T08:54:05.888Z,3.70
2022-07-26T08:56:40.671Z,7.97
2022-07-26T08:59:21.224Z,4.70
2022-07-26T09:02:05.295Z,3.03
2022-07-26T09:04:44.707Z,7.00
2022-07-26T09:07:18.743Z,3.47
2022-07-26T09:10:12.627Z,2.70
2022-07-26T09:12:42.539Z,5.32
2022-07-26T09:15:22.736Z,4.53
2022-07-26T09:17:57.967Z,4.82
2022-07-26T09:20:32.344Z,3.75
2022-07-26T09:23:08.082Z,5.90
2022-07-26T09:25:43.210Z,6.97
2022-07-26T09:28:31.920Z,2.63
2022-07-26T09:31:04.203Z,2.40
2022-07-26T09:33:51.845Z,4.93
2022-07-26T09:36:19.589Z,3.28
2022-07-26T09:41:37.304Z,3.30
2022-07-26T09:44:26.264Z,2.83
2022-07-26T09:46:59.511Z,3.72
2022-07-26T09:49:32.544Z,4.60
2022-07-26T09:52:22.025Z,3.42
2022-07-26T09:54:50.063Z,3.78
2022-07-26T09:57:21.784Z,4.00
2022-07-26T09:59:48.805Z,5.22
2022-07-26T10:02:15.936Z,3.45
2022-07-26T10:04:44.502Z,3.08
2022-07-26T10:07:11.668Z,4.97
2022-07-26T10:10:17.434Z,2.55
2022-07-26T10:12:46.877Z,4.03
2022-07-26T10:15:42.969Z,4.55
2022-07-26T10:18:39.035Z,3.65
2022-07-26T10:21:27.242Z,3.40
2022-07-26T10:24:03.739Z,3.40
2022-07-26T10:26:36.311Z,2.70
2022-07-26T10:29:18.339Z,3.00
2022-07-26T10:32:04.061Z,4.25
2022-07-26T10:34:39.493Z,3.90
2022-07-26T10:37:19.934Z,4.65
2022-07-26T10:39:47.085Z,4.30
2022-07-26T10:42:16.976Z,8.93
2022-07-26T10:44:47.012Z,4.60
2022-07-26T10:47:21.061Z,8.30
2022-07-26T10:50:00.161Z,7.07
2022-07-26T10:52:31.797Z,3.67
2022-07-26T10:55:07.457Z,12.00
2022-07-26T10:57:41.370Z,2.42
2022-07-26T11:00:26.544Z,11.73
2022-07-26T11:02:59.154Z,4.25
2022-07-26T11:05:34.976Z,5.22
2022-07-26T11:08:09.067Z,1.98
2022-07-26T11:10:47.530Z,3.55
2022-07-26T11:13:26.336Z,3.83
2022-07-26T11:16:04.115Z,4.68
2022-07-26T11:18:38.909Z,3.50
2022-07-26T11:21:17.590Z,3.05
2022-07-26T11:23:51.218Z,3.97
2022-07-26T11:26:25.742Z,6.18
2022-07-26T11:29:06.143Z,7.88
2022-07-26T11:31:55.811Z,4.38
2022-07-26T11:34:35.490Z,5.70
2022-07-26T11:37:06.005Z,6.80
2022-07-26T11:39:36.297Z,2.47
2022-07-26T11:42:19.925Z,4.50
2022-07-26T11:44:49.824Z,4.95
2022-07-26T11:47:25.199Z,3.78
2022-07-26T11:50:12.968Z,4.53
2022-07-26T11:52:41.888Z,3.72
2022-07-26T11:55:09.699Z,5.93
2022-07-26T11:57:36.857Z,3.45
2022-07-26T12:00:06.373Z,2.90
2022-07-26T12:02:33.559Z,4.90
2022-07-26T12:05:22.729Z,5.40
2022-07-26T12:08:02.966Z,2.80
2022-07-26T12:10:31.031Z,3.17
2022-07-26T12:13:16.442Z,5.35
2022-07-26T12:15:53.813Z,4.70
2022-07-26T12:18:34.127Z,5.90
2022-07-26T12:21:09.653Z,5.53
2022-07-26T12:23:50.891Z,3.80
2022-07-26T12:26:29.266Z,10.45
2022-07-26T12:31:30.637Z,2.58
2022-07-26T12:33:59.531Z,3.60
2022-07-26T12:36:29.423Z,4.90
2022-07-26T12:39:00.555Z,8.45
2022-07-26T12:41:47.435Z,3.25
2022-07-26T12:44:15.375Z,4.32
2022-07-26T12:46:46.627Z,3.92
2022-07-26T12:49:13.944Z,5.18
2022-07-26T12:51:41.412Z,3.58
2022-07-26T12:54:09.498Z,1.95
2022-07-26T12:56:36.750Z,3.03
2022-07-26T12:59:03.825Z,2.37
2022-07-26T13:01:32.933Z,2.67
2022-07-26T13:04:01.167Z,1.95
2022-07-26T13:06:28.560Z,2.55
2022-07-26T13:08:56.616Z,2.95
2022-07-26T13:11:24.070Z,1.60
2022-07-26T13:13:51.160Z,3.40
2022-07-26T13:16:18.212Z,1.92
2022-07-26T13:18:46.443Z,1.85
2022-07-26T13:21:13.462Z,2.08
2022-07-26T13:23:40.504Z,1.80
2022-07-26T13:26:09.222Z,3.50
2022-07-26T13:28:39.980Z,1.85
2022-07-26T13:31:07.310Z,2.15
2022-07-26T13:33:34.503Z,1.17
2022-07-26T13:36:01.566Z,2.05
2022-07-26T13:38:31.381Z,1.43
2022-07-26T13:40:58.374Z,1.02
2022-07-26T13:43:25.726Z,1.88
2022-07-26T13:45:52.701Z,1.85
2022-07-26T13:48:20.386Z,0.80
2022-07-26T13:50:47.418Z,1.38
2022-07-26T13:53:14.852Z,1.30
2022-07-26T13:55:42.430Z,1.48
2022-07-26T13:58:10.378Z,3.08
2022-07-26T14:00:38.361Z,2.75
2022-07-26T14:05:32.992Z,1.48
2022-07-26T14:08:00.062Z,3.42
2022-07-26T14:10:27.217Z,1.45
2022-07-26T14:12:54.452Z,2.08
2022-07-26T14:15:23.313Z,3.88
2022-07-26T14:17:52.783Z,1.20
2022-07-26T14:20:21.719Z,1.38
2022-07-26T14:22:53.959Z,3.17
2022-07-26T14:25:24.167Z,2.03
2022-07-26T14:27:54.382Z,1.70
2022-07-26T14:30:22.594Z,1.38
2022-07-26T14:32:49.976Z,1.48
2022-07-26T14:35:17.927Z,4.63
2022-07-26T14:37:46.239Z,2.72
2022-07-26T14:40:26.021Z,1.33
2022-07-26T14:42:53.096Z,2.63
2022-07-26T14:45:20.169Z,1.23
2022-07-26T14:47:47.286Z,1.50
2022-07-26T14:51:08.277Z,2.00
2022-07-26T15:16:07.647Z,1.67
2022-07-26T15:18:35.988Z,2.63
2022-07-26T15:21:03.309Z,2.42
2022-07-26T15:23:31.136Z,2.03
2022-07-26T15:28:25.301Z,2.53
2022-07-26T15:30:53.013Z,1.58
2022-07-26T15:33:20.747Z,2.22
2022-07-26T15:35:47.851Z,1.55
2022-07-26T15:38:14.940Z,2.78
2022-07-26T15:40:42.162Z,2.38
2022-07-26T15:43:09.219Z,1.92
2022-07-26T15:45:37.484Z,1.38
2022-07-26T15:48:15.851Z,3.13
2022-07-26T15:50:48.057Z,2.00
2022-07-26T15:53:16.747Z,3.35
2022-07-26T15:55:43.826Z,3.00
2022-07-26T15:58:10.912Z,1.33
2022-07-26T16:00:38.021Z,1.67
2022-07-26T16:03:05.140Z,1.00
2022-07-26T16:05:33.201Z,1.10
2022-07-26T16:08:00.699Z,2.17
2022-07-26T16:10:27.767Z,1.10
2022-07-26T16:12:54.762Z,1.25
2022-07-26T16:15:21.847Z,2.65
2022-07-26T16:17:48.821Z,4.68
2022-07-26T16:20:19.406Z,2.67
2022-07-26T16:22:48.250Z,2.05
2022-07-26T16:25:16.184Z,2.17
2022-07-26T16:27:44.199Z,1.15
2022-07-26T16:30:14.717Z,3.72
2022-07-26T16:32:43.689Z,1.63
2022-07-26T16:35:12.423Z,1.70
2022-07-26T16:37:40.169Z,1.02
2022-07-26T16:42:36.595Z,2.55
2022-07-26T16:45:04.719Z,2.63
2022-07-26T16:47:31.745Z,1.85
2022-07-26T16:49:58.808Z,2.10
2022-07-26T16:52:25.814Z,2.40
2022-07-26T16:54:52.833Z,2.88
2022-07-26T16:57:19.897Z,1.30
2022-07-26T16:59:47.708Z,3.08
2022-07-26T17:02:14.868Z,1.73
2022-07-26T17:04:41.960Z,1.45
2022-07-26T17:07:24.415Z,1.20
2022-07-26T17:09:52.460Z,2.08
2022-07-26T17:12:20.175Z,0.70
2022-07-26T17:14:47.206Z,1.20
2022-07-26T17:17:14.221Z,1.05
2022-07-26T17:19:41.260Z,0.77
2022-07-26T17:22:08.295Z,0.80
2022-07-26T17:24:35.289Z,3.83
2022-07-26T17:27:02.313Z,0.90
2022-07-26T17:29:29.393Z,0.70
2022-07-26T17:31:56.538Z,1.65
2022-07-26T17:34:23.953Z,0.98
2022-07-26T17:37:05.691Z,1.35
2022-07-26T17:39:50.760Z,1.15
2022-07-26T17:42:21.012Z,1.35
2022-07-26T17:44:48.179Z,2.00
2022-07-26T17:47:18.005Z,1.65
2022-07-26T17:49:55.824Z,1.02
2022-07-26T17:52:23.985Z,1.85
2022-07-26T17:54:51.033Z,1.27
2022-07-26T17:57:18.028Z,1.13
2022-07-26T17:59:45.132Z,1.77
2022-07-26T18:02:12.265Z,2.13
2022-07-26T18:04:39.337Z,1.25
2022-07-26T18:07:06.356Z,6.80
2022-07-26T18:09:33.461Z,1.63
2022-07-26T18:12:00.646Z,2.67
2022-07-26T18:14:27.711Z,0.88
2022-07-26T18:16:56.989Z,1.63
2022-07-26T18:19:24.814Z,0.98
2022-07-26T18:24:18.877Z,3.53
2022-07-26T18:26:45.957Z,2.63
2022-07-26T18:29:15.211Z,4.65
2022-07-26T18:31:42.970Z,1.40
2022-07-26T18:36:37.079Z,2.70
2022-07-26T18:39:05.220Z,0.85
2022-07-26T18:41:34.273Z,1.35
2022-07-26T18:44:04.108Z,2.15
2022-07-26T18:46:31.293Z,1.63
2022-07-26T18:49:01.197Z,1.05
2022-07-26T18:51:29.759Z,1.80
2022-07-26T18:53:58.918Z,0.80
2022-07-26T18:56:25.919Z,1.10
2022-07-26T18:58:53.197Z,2.80
2022-07-26T19:01:20.264Z,0.80
2022-07-26T19:03:47.384Z,3.78
2022-07-26T19:06:14.660Z,1.23
2022-07-26T19:08:41.697Z,2.60
2022-07-26T19:11:08.923Z,2.93
2022-07-26T19:13:36.035Z,2.55
2022-07-26T19:16:03.095Z,2.67
2022-07-26T19:18:30.298Z,3.45
2022-07-26T19:20:57.448Z,3.42
2022-07-26T19:23:24.550Z,7.97
2022-07-26T19:25:51.941Z,1.35
2022-07-26T19:28:19.057Z,1.77
2022-07-26T19:30:46.324Z,2.30
2022-07-26T19:33:14.375Z,3.53
2022-07-26T19:35:41.456Z,3.97
2022-07-26T19:38:08.599Z,4.20
2022-07-26T19:40:35.782Z,2.78
2022-07-26T19:43:02.938Z,1.92
2022-07-26T19:45:30.003Z,2.70
2022-07-26T19:47:57.212Z,7.30
2022-07-26T19:50:24.463Z,1.38
2022-07-26T19:52:51.524Z,1.95
2022-07-26T19:55:18.821Z,8.13
2022-07-26T19:57:46.033Z,3.75
2022-07-26T20:00:13.982Z,3.38
2022-07-26T20:05:13.371Z,3.92
2022-07-26T20:07:40.855Z,3.88
2022-07-26T20:10:09.643Z,4.07
2022-07-26T20:12:38.899Z,3.42
2022-07-26T20:15:09.823Z,3.60
2022-07-26T20:17:39.325Z,3.08
2022-07-26T20:20:10.162Z,4.00
2022-07-26T20:22:37.430Z,2.35
2022-07-26T20:25:06.071Z,2.80
2022-07-26T20:27:33.296Z,2.90
2022-07-26T20:30:01.269Z,2.00
2022-07-26T20:32:28.534Z,4.45
2022-07-26T20:34:55.769Z,3.10
2022-07-26T20:37:23.180Z,1.40
2022-07-26T20:39:50.465Z,6.22
2022-07-26T20:42:21.620Z,4.03
2022-07-26T20:44:49.474Z,2.88
2022-07-26T20:47:16.512Z,3.78
2022-07-26T20:49:43.568Z,3.40
2022-07-26T20:52:11.428Z,5.70
2022-07-26T20:54:38.594Z,5.18
2022-07-26T20:57:05.734Z,6.83
2022-07-26T20:59:35.027Z,6.07
2022-07-26T21:02:02.289Z,3.45
2022-07-26T21:04:30.081Z,3.47
2022-07-26T21:06:57.123Z,5.10
2022-07-26T21:09:27.861Z,4.77
2022-07-26T21:11:55.221Z,3.95
2022-07-26T21:14:22.306Z,4.28
2022-07-26T21:16:49.418Z,4.37
2022-07-26T21:19:16.683Z,1.42
2022-07-26T21:21:44.220Z,3.65
2022-07-26T21:24:12.350Z,4.10
2022-07-26T21:26:39.563Z,6.75
2022-07-26T21:29:06.731Z,5.03
2022-07-26T21:31:34.175Z,4.50
2022-07-26T21:34:01.400Z,2.78
2022-07-26T21:36:28.637Z,2.33
2022-07-26T21:38:55.808Z,4.43
2022-07-26T21:41:22.852Z,5.27
2022-07-26T21:43:49.878Z,6.53
2022-07-26T21:46:17.042Z,2.42
2022-07-26T21:48:44.205Z,4.72
2022-07-26T21:51:11.501Z,5.57
2022-07-26T21:53:38.586Z,5.07
2022-07-26T21:56:06.008Z,5.03
2022-07-26T21:58:36.610Z,3.35
2022-07-26T22:01:08.592Z,4.30
2022-07-26T22:03:38.923Z,2.67
2022-07-26T22:06:08.785Z,5.88
2022-07-26T22:08:39.225Z,6.20
2022-07-26T22:11:06.473Z,5.30
2022-07-26T22:13:33.473Z,5.63
2022-07-26T22:16:00.633Z,4.38
2022-07-26T22:18:28.125Z,6.65
2022-07-26T22:20:55.937Z,2.95
2022-07-26T22:23:23.464Z,8.93
2022-07-26T22:25:50.495Z,7.60
2022-07-26T22:28:17.966Z,6.47
2022-07-26T22:30:46.460Z,5.43
2022-07-26T22:33:13.638Z,3.35
2022-07-26T22:35:40.861Z,7.00
2022-07-26T22:38:11.944Z,3.33
2022-07-26T22:40:42.357Z,4.05
2022-07-26T22:43:11.531Z,6.65
2022-07-26T22:45:39.837Z,2.42
2022-07-26T22:48:09.388Z,5.78
2022-07-26T22:50:36.797Z,6.95
2022-07-26T22:53:04.345Z,3.30
2022-07-26T22:55:32.060Z,3.42
2022-07-26T22:57:59.708Z,3.00
2022-07-26T23:00:27.167Z,5.18
2022-07-26T23:02:54.480Z,5.13
2022-07-26T23:05:21.880Z,8.65
2022-07-26T23:07:59.190Z,8.02
2022-07-26T23:10:30.596Z,5.57
2022-07-26T23:12:58.010Z,8.23
2022-07-26T23:15:25.254Z,5.20
2022-07-26T23:17:52.390Z,8.32
2022-07-26T23:20:19.453Z,5.07
2022-07-26T23:22:46.461Z,8.87
2022-07-26T23:25:13.526Z,6.15
2022-07-26T23:27:40.648Z,5.93
2022-07-26T23:30:08.597Z,3.93
2022-07-26T23:35:02.622Z,5.97
2022-07-26T23:37:29.676Z,6.78
2022-07-26T23:39:56.670Z,4.10
2022-07-26T23:42:24.270Z,3.08
2022-07-26T23:44:51.365Z,2.22
2022-07-26T23:47:18.427Z,7.00
2022-07-26T23:49:45.450Z,3.13
2022-07-26T23:52:12.568Z,6.15
2022-07-26T23:54:39.637Z,8.30
2022-07-26T23:57:07.012Z,6.43
2022-07-26T23:59:34.128Z,7.93
